sensor_id;sensor_type;location;lat;lon;timestamp;pressure;altitude;pressure_sealevel;temperature;humidity
49342;BME280;35210;41.606;-87.602;2023-02-22T00:02:28;98985.50;;;6.15;32.47
49342;BME280;35210;41.606;-87.602;2023-02-22T00:04:57;98981.09;;;6.15;31.97
49342;BME280;35210;41.606;-87.602;2023-02-22T00:07:29;98976.88;;;6.13;32.04
49342;BME280;35210;41.606;-87.602;2023-02-22T00:09:58;98989.16;;;6.12;36.57
49342;BME280;35210;41.606;-87.602;2023-02-22T00:12:27;98998.59;;;6.15;37.46
49342;BME280;35210;41.606;-87.602;2023-02-22T00:14:57;98998.69;;;6.13;39.74
49342;BME280;35210;41.606;-87.602;2023-02-22T00:17:27;98999.75;;;6.11;40.41
49342;BME280;35210;41.606;-87.602;2023-02-22T00:19:56;98997.66;;;6.16;40.09
49342;BME280;35210;41.606;-87.602;2023-02-22T00:22:24;98988.66;;;6.20;39.54
49342;BME280;35210;41.606;-87.602;2023-02-22T00:24:53;98982.34;;;6.10;40.42
49342;BME280;35210;41.606;-87.602;2023-02-22T00:27:21;98968.50;;;6.08;41.34
49342;BME280;35210;41.606;-87.602;2023-02-22T00:29:50;98971.31;;;6.05;41.26
49342;BME280;35210;41.606;-87.602;2023-02-22T00:32:23;98972.78;;;6.09;41.21
49342;BME280;35210;41.606;-87.602;2023-02-22T00:34:53;98966.81;;;6.07;41.83
49342;BME280;35210;41.606;-87.602;2023-02-22T00:37:21;98966.41;;;6.13;41.34
49342;BME280;35210;41.606;-87.602;2023-02-22T00:39:50;98956.66;;;6.15;41.29
49342;BME280;35210;41.606;-87.602;2023-02-22T00:42:18;98955.78;;;6.02;41.48
49342;BME280;35210;41.606;-87.602;2023-02-22T00:44:47;98966.53;;;5.84;42.58
49342;BME280;35210;41.606;-87.602;2023-02-22T00:47:15;98956.94;;;5.98;43.14
49342;BME280;35210;41.606;-87.602;2023-02-22T00:49:44;98947.38;;;5.97;42.48
49342;BME280;35210;41.606;-87.602;2023-02-22T00:52:12;98939.19;;;5.88;42.70
49342;BME280;35210;41.606;-87.602;2023-02-22T00:54:41;98932.66;;;5.81;43.38
49342;BME280;35210;41.606;-87.602;2023-02-22T00:57:09;98937.81;;;5.83;43.14
49342;BME280;35210;41.606;-87.602;2023-02-22T00:59:38;98935.69;;;5.75;43.57
49342;BME280;35210;41.606;-87.602;2023-02-22T01:02:06;98923.81;;;5.70;43.40
49342;BME280;35210;41.606;-87.602;2023-02-22T01:04:36;98925.81;;;5.66;44.05
49342;BME280;35210;41.606;-87.602;2023-02-22T01:07:06;98913.44;;;5.68;43.85
49342;BME280;35210;41.606;-87.602;2023-02-22T01:09:35;98903.38;;;5.62;43.97
49342;BME280;35210;41.606;-87.602;2023-02-22T01:12:05;98912.47;;;5.56;44.28
49342;BME280;35210;41.606;-87.602;2023-02-22T01:14:33;98914.78;;;5.61;43.97
49342;BME280;35210;41.606;-87.602;2023-02-22T01:17:01;98885.78;;;5.64;44.51
49342;BME280;35210;41.606;-87.602;2023-02-22T01:19:30;98878.22;;;5.59;44.67
49342;BME280;35210;41.606;-87.602;2023-02-22T01:21:58;98882.47;;;5.48;45.03
49342;BME280;35210;41.606;-87.602;2023-02-22T01:24:28;98886.78;;;5.49;44.69
49342;BME280;35210;41.606;-87.602;2023-02-22T01:26:56;98896.44;;;5.34;45.47
49342;BME280;35210;41.606;-87.602;2023-02-22T01:29:25;98900.09;;;5.32;45.37
49342;BME280;35210;41.606;-87.602;2023-02-22T01:31:55;98905.78;;;5.38;45.45
49342;BME280;35210;41.606;-87.602;2023-02-22T01:34:24;98913.50;;;5.27;46.09
49342;BME280;35210;41.606;-87.602;2023-02-22T01:36:52;98906.38;;;5.29;45.87
49342;BME280;35210;41.606;-87.602;2023-02-22T01:39:21;98907.22;;;5.29;44.96
49342;BME280;35210;41.606;-87.602;2023-02-22T01:41:50;98916.41;;;5.22;46.06
49342;BME280;35210;41.606;-87.602;2023-02-22T01:44:26;98922.38;;;5.24;46.21
49342;BME280;35210;41.606;-87.602;2023-02-22T01:46:57;98932.75;;;5.26;45.07
49342;BME280;35210;41.606;-87.602;2023-02-22T01:49:30;98942.09;;;5.30;44.40
49342;BME280;35210;41.606;-87.602;2023-02-22T01:52:02;98950.50;;;5.35;44.23
49342;BME280;35210;41.606;-87.602;2023-02-22T01:54:34;98943.66;;;5.33;44.55
49342;BME280;35210;41.606;-87.602;2023-02-22T01:57:12;98942.00;;;5.32;44.97
49342;BME280;35210;41.606;-87.602;2023-02-22T01:59:46;98940.13;;;5.34;44.41
49342;BME280;35210;41.606;-87.602;2023-02-22T02:02:17;98932.81;;;5.39;44.40
49342;BME280;35210;41.606;-87.602;2023-02-22T02:04:51;98935.34;;;5.40;44.03
49342;BME280;35210;41.606;-87.602;2023-02-22T02:07:22;98930.75;;;5.44;43.86
49342;BME280;35210;41.606;-87.602;2023-02-22T02:09:57;98941.13;;;5.45;43.50
49342;BME280;35210;41.606;-87.602;2023-02-22T02:12:29;98924.28;;;5.49;42.75
49342;BME280;35210;41.606;-87.602;2023-02-22T02:15:16;98927.53;;;5.53;42.98
49342;BME280;35210;41.606;-87.602;2023-02-22T02:17:45;98917.25;;;5.50;42.63
49342;BME280;35210;41.606;-87.602;2023-02-22T02:20:20;98917.16;;;5.51;42.90
49342;BME280;35210;41.606;-87.602;2023-02-22T02:22:56;98917.34;;;5.48;42.41
49342;BME280;35210;41.606;-87.602;2023-02-22T02:28:52;98935.69;;;5.48;43.16
49342;BME280;35210;41.606;-87.602;2023-02-22T02:34:38;98943.63;;;5.47;42.76
49342;BME280;35210;41.606;-87.602;2023-02-22T02:37:16;98941.88;;;5.47;43.01
49342;BME280;35210;41.606;-87.602;2023-02-22T02:39:52;98938.09;;;5.51;42.60
49342;BME280;35210;41.606;-87.602;2023-02-22T02:42:27;98940.81;;;5.50;42.83
49342;BME280;35210;41.606;-87.602;2023-02-22T02:45:02;98943.34;;;5.51;43.49
49342;BME280;35210;41.606;-87.602;2023-02-22T02:47:36;98941.66;;;5.50;43.20
49342;BME280;35210;41.606;-87.602;2023-02-22T02:50:12;98931.19;;;5.50;42.75
49342;BME280;35210;41.606;-87.602;2023-02-22T02:52:44;98933.81;;;5.50;42.86
49342;BME280;35210;41.606;-87.602;2023-02-22T02:55:13;98937.66;;;5.45;43.25
49342;BME280;35210;41.606;-87.602;2023-02-22T02:57:41;98938.59;;;5.44;43.84
49342;BME280;35210;41.606;-87.602;2023-02-22T03:00:14;98926.53;;;5.41;42.89
49342;BME280;35210;41.606;-87.602;2023-02-22T03:02:59;98927.56;;;5.39;43.61
49342;BME280;35210;41.606;-87.602;2023-02-22T03:05:47;98924.59;;;5.31;43.56
49342;BME280;35210;41.606;-87.602;2023-02-22T03:08:29;98921.25;;;5.28;44.07
49342;BME280;35210;41.606;-87.602;2023-02-22T03:11:05;98927.31;;;5.29;44.34
49342;BME280;35210;41.606;-87.602;2023-02-22T03:13:44;98925.84;;;5.25;44.77
49342;BME280;35210;41.606;-87.602;2023-02-22T03:16:22;98926.53;;;5.14;45.08
49342;BME280;35210;41.606;-87.602;2023-02-22T03:18:59;98940.66;;;5.12;45.87
49342;BME280;35210;41.606;-87.602;2023-02-22T03:21:41;98944.84;;;5.14;45.77
49342;BME280;35210;41.606;-87.602;2023-02-22T03:24:18;98932.91;;;5.10;45.04
49342;BME280;35210;41.606;-87.602;2023-02-22T03:26:52;98938.41;;;5.20;44.42
49342;BME280;35210;41.606;-87.602;2023-02-22T03:29:25;98939.72;;;5.13;44.92
49342;BME280;35210;41.606;-87.602;2023-02-22T03:31:57;98937.03;;;5.00;45.35
49342;BME280;35210;41.606;-87.602;2023-02-22T03:34:31;98933.00;;;4.94;44.97
49342;BME280;35210;41.606;-87.602;2023-02-22T03:37:06;98939.94;;;4.95;45.32
49342;BME280;35210;41.606;-87.602;2023-02-22T03:39:39;98946.00;;;4.96;44.38
49342;BME280;35210;41.606;-87.602;2023-02-22T03:42:12;98948.72;;;4.94;43.69
49342;BME280;35210;41.606;-87.602;2023-02-22T03:44:43;98957.50;;;4.93;43.38
49342;BME280;35210;41.606;-87.602;2023-02-22T03:47:16;98960.38;;;4.89;43.85
49342;BME280;35210;41.606;-87.602;2023-02-22T03:49:50;98956.84;;;4.76;44.02
49342;BME280;35210;41.606;-87.602;2023-02-22T03:52:21;98947.69;;;4.69;44.08
49342;BME280;35210;41.606;-87.602;2023-02-22T03:54:51;98950.66;;;4.62;44.41
49342;BME280;35210;41.606;-87.602;2023-02-22T03:57:23;98949.72;;;4.63;44.10
49342;BME280;35210;41.606;-87.602;2023-02-22T03:59:53;98950.28;;;4.54;44.17
49342;BME280;35210;41.606;-87.602;2023-02-22T04:02:21;98954.94;;;4.49;44.05
49342;BME280;35210;41.606;-87.602;2023-02-22T04:04:50;98965.41;;;4.35;43.63
49342;BME280;35210;41.606;-87.602;2023-02-22T04:07:20;98959.59;;;4.16;44.52
49342;BME280;35210;41.606;-87.602;2023-02-22T04:09:49;98965.81;;;4.13;44.19
49342;BME280;35210;41.606;-87.602;2023-02-22T04:12:18;98959.19;;;4.08;44.70
49342;BME280;35210;41.606;-87.602;2023-02-22T04:14:49;98947.06;;;4.07;44.80
49342;BME280;35210;41.606;-87.602;2023-02-22T04:17:17;98931.38;;;4.07;45.54
49342;BME280;35210;41.606;-87.602;2023-02-22T04:19:45;98937.94;;;4.14;44.21
49342;BME280;35210;41.606;-87.602;2023-02-22T04:22:13;98914.78;;;4.22;43.78
49342;BME280;35210;41.606;-87.602;2023-02-22T04:24:43;98917.31;;;4.23;44.01
49342;BME280;35210;41.606;-87.602;2023-02-22T04:27:11;98923.69;;;4.34;44.11
49342;BME280;35210;41.606;-87.602;2023-02-22T04:29:39;98927.44;;;4.44;43.65
49342;BME280;35210;41.606;-87.602;2023-02-22T04:32:08;98907.97;;;4.48;43.71
49342;BME280;35210;41.606;-87.602;2023-02-22T04:34:36;98906.50;;;4.44;43.82
49342;BME280;35210;41.606;-87.602;2023-02-22T04:37:04;98907.13;;;4.47;43.14
49342;BME280;35210;41.606;-87.602;2023-02-22T04:39:32;98907.13;;;4.47;43.58
49342;BME280;35210;41.606;-87.602;2023-02-22T04:42:02;98900.25;;;4.32;43.97
49342;BME280;35210;41.606;-87.602;2023-02-22T04:44:31;98884.75;;;4.43;44.09
49342;BME280;35210;41.606;-87.602;2023-02-22T04:46:59;98878.47;;;4.46;43.64
49342;BME280;35210;41.606;-87.602;2023-02-22T04:49:27;98885.19;;;4.50;43.23
49342;BME280;35210;41.606;-87.602;2023-02-22T04:51:56;98891.28;;;4.50;42.94
49342;BME280;35210;41.606;-87.602;2023-02-22T04:54:24;98882.31;;;4.54;42.59
49342;BME280;35210;41.606;-87.602;2023-02-22T04:56:53;98876.06;;;4.57;42.78
49342;BME280;35210;41.606;-87.602;2023-02-22T04:59:24;98870.16;;;4.53;43.43
49342;BME280;35210;41.606;-87.602;2023-02-22T05:01:53;98856.91;;;4.56;42.74
49342;BME280;35210;41.606;-87.602;2023-02-22T05:04:21;98852.44;;;4.58;43.30
49342;BME280;35210;41.606;-87.602;2023-02-22T05:06:50;98836.00;;;4.56;42.68
49342;BME280;35210;41.606;-87.602;2023-02-22T05:09:19;98830.94;;;4.53;43.37
49342;BME280;35210;41.606;-87.602;2023-02-22T05:11:47;98820.16;;;4.45;43.07
49342;BME280;35210;41.606;-87.602;2023-02-22T05:14:15;98810.72;;;4.43;42.97
49342;BME280;35210;41.606;-87.602;2023-02-22T05:16:47;98815.13;;;4.42;43.47
49342;BME280;35210;41.606;-87.602;2023-02-22T05:19:16;98799.63;;;4.39;43.92
49342;BME280;35210;41.606;-87.602;2023-02-22T05:21:44;98804.38;;;4.33;43.61
49342;BME280;35210;41.606;-87.602;2023-02-22T05:24:12;98789.81;;;4.28;43.92
49342;BME280;35210;41.606;-87.602;2023-02-22T05:26:41;98802.25;;;4.25;43.93
49342;BME280;35210;41.606;-87.602;2023-02-22T05:29:11;98820.63;;;4.23;43.73
49342;BME280;35210;41.606;-87.602;2023-02-22T05:31:39;98820.91;;;4.33;43.50
49342;BME280;35210;41.606;-87.602;2023-02-22T05:34:09;98813.16;;;4.32;44.05
49342;BME280;35210;41.606;-87.602;2023-02-22T05:36:39;98819.41;;;4.29;42.93
49342;BME280;35210;41.606;-87.602;2023-02-22T05:39:08;98817.28;;;4.21;43.40
49342;BME280;35210;41.606;-87.602;2023-02-22T05:41:37;98806.63;;;4.24;43.52
49342;BME280;35210;41.606;-87.602;2023-02-22T05:44:05;98807.28;;;4.14;43.92
49342;BME280;35210;41.606;-87.602;2023-02-22T05:46:34;98791.31;;;4.18;45.14
49342;BME280;35210;41.606;-87.602;2023-02-22T05:49:02;98785.72;;;4.24;43.69
49342;BME280;35210;41.606;-87.602;2023-02-22T05:51:32;98785.16;;;4.19;44.39
49342;BME280;35210;41.606;-87.602;2023-02-22T05:54:01;98791.97;;;4.22;44.53
49342;BME280;35210;41.606;-87.602;2023-02-22T05:56:29;98779.66;;;4.24;45.25
49342;BME280;35210;41.606;-87.602;2023-02-22T05:58:57;98754.19;;;4.27;44.58
49342;BME280;35210;41.606;-87.602;2023-02-22T06:01:26;98781.81;;;4.32;44.73
49342;BME280;35210;41.606;-87.602;2023-02-22T06:03:55;98770.31;;;4.34;44.53
49342;BME280;35210;41.606;-87.602;2023-02-22T06:06:23;98739.50;;;4.39;44.61
49342;BME280;35210;41.606;-87.602;2023-02-22T06:08:53;98742.31;;;4.36;44.90
49342;BME280;35210;41.606;-87.602;2023-02-22T06:11:21;98761.16;;;4.27;44.77
49342;BME280;35210;41.606;-87.602;2023-02-22T06:13:50;98752.22;;;4.31;44.25
49342;BME280;35210;41.606;-87.602;2023-02-22T06:16:20;98738.41;;;4.29;44.14
49342;BME280;35210;41.606;-87.602;2023-02-22T06:18:48;98736.44;;;4.33;45.09
49342;BME280;35210;41.606;-87.602;2023-02-22T06:21:17;98720.47;;;4.37;45.47
49342;BME280;35210;41.606;-87.602;2023-02-22T06:23:46;98715.97;;;4.39;47.43
49342;BME280;35210;41.606;-87.602;2023-02-22T06:26:17;98701.63;;;4.32;48.58
49342;BME280;35210;41.606;-87.602;2023-02-22T06:28:46;98690.41;;;4.30;49.07
49342;BME280;35210;41.606;-87.602;2023-02-22T06:31:15;98677.66;;;4.25;49.42
49342;BME280;35210;41.606;-87.602;2023-02-22T06:33:43;98685.47;;;4.25;49.27
49342;BME280;35210;41.606;-87.602;2023-02-22T06:36:13;98685.03;;;4.19;49.22
49342;BME280;35210;41.606;-87.602;2023-02-22T06:38:42;98690.06;;;4.22;49.94
49342;BME280;35210;41.606;-87.602;2023-02-22T06:41:10;98699.78;;;4.20;50.12
49342;BME280;35210;41.606;-87.602;2023-02-22T06:43:42;98690.16;;;4.20;52.63
49342;BME280;35210;41.606;-87.602;2023-02-22T06:46:10;98695.56;;;4.17;53.44
49342;BME280;35210;41.606;-87.602;2023-02-22T06:48:39;98699.41;;;4.12;53.85
49342;BME280;35210;41.606;-87.602;2023-02-22T06:51:07;98696.78;;;4.12;54.28
49342;BME280;35210;41.606;-87.602;2023-02-22T06:53:35;98704.25;;;4.18;55.15
49342;BME280;35210;41.606;-87.602;2023-02-22T06:56:04;98681.69;;;4.17;54.31
49342;BME280;35210;41.606;-87.602;2023-02-22T06:58:32;98675.91;;;4.12;55.04
49342;BME280;35210;41.606;-87.602;2023-02-22T07:01:02;98674.13;;;4.12;55.05
49342;BME280;35210;41.606;-87.602;2023-02-22T07:03:33;98673.09;;;4.15;55.27
49342;BME280;35210;41.606;-87.602;2023-02-22T07:06:01;98661.81;;;4.14;54.74
49342;BME280;35210;41.606;-87.602;2023-02-22T07:08:29;98641.00;;;4.13;55.46
49342;BME280;35210;41.606;-87.602;2023-02-22T07:10:57;98644.53;;;4.12;55.49
49342;BME280;35210;41.606;-87.602;2023-02-22T07:13:25;98643.72;;;4.11;55.65
49342;BME280;35210;41.606;-87.602;2023-02-22T07:15:54;98665.63;;;4.09;55.07
49342;BME280;35210;41.606;-87.602;2023-02-22T07:18:24;98672.72;;;4.07;55.79
49342;BME280;35210;41.606;-87.602;2023-02-22T07:20:52;98670.75;;;4.10;55.57
49342;BME280;35210;41.606;-87.602;2023-02-22T07:23:20;98660.97;;;4.14;56.36
49342;BME280;35210;41.606;-87.602;2023-02-22T07:25:49;98635.69;;;4.14;56.04
49342;BME280;35210;41.606;-87.602;2023-02-22T07:28:18;98636.59;;;4.13;56.11
49342;BME280;35210;41.606;-87.602;2023-02-22T07:30:46;98648.47;;;4.05;56.23
49342;BME280;35210;41.606;-87.602;2023-02-22T07:33:15;98653.31;;;4.11;56.04
49342;BME280;35210;41.606;-87.602;2023-02-22T07:35:45;98663.19;;;4.20;56.39
49342;BME280;35210;41.606;-87.602;2023-02-22T07:38:15;98665.41;;;4.26;55.83
49342;BME280;35210;41.606;-87.602;2023-02-22T07:40:44;98662.41;;;4.32;55.45
49342;BME280;35210;41.606;-87.602;2023-02-22T07:43:16;98649.88;;;4.37;55.83
49342;BME280;35210;41.606;-87.602;2023-02-22T07:45:46;98633.38;;;4.37;55.23
49342;BME280;35210;41.606;-87.602;2023-02-22T07:48:15;98634.78;;;4.28;55.85
49342;BME280;35210;41.606;-87.602;2023-02-22T07:50:45;98642.25;;;4.34;56.41
49342;BME280;35210;41.606;-87.602;2023-02-22T07:53:21;98632.53;;;4.36;56.21
49342;BME280;35210;41.606;-87.602;2023-02-22T07:55:50;98623.00;;;4.35;55.98
49342;BME280;35210;41.606;-87.602;2023-02-22T07:58:23;98628.25;;;4.35;55.90
49342;BME280;35210;41.606;-87.602;2023-02-22T08:00:53;98619.22;;;4.26;56.06
49342;BME280;35210;41.606;-87.602;2023-02-22T08:03:22;98616.69;;;4.25;56.97
49342;BME280;35210;41.606;-87.602;2023-02-22T08:05:53;98604.41;;;4.13;56.77
49342;BME280;35210;41.606;-87.602;2023-02-22T08:08:22;98601.81;;;4.13;56.83
49342;BME280;35210;41.606;-87.602;2023-02-22T08:10:51;98605.75;;;4.06;56.44
49342;BME280;35210;41.606;-87.602;2023-02-22T08:13:20;98594.00;;;3.99;57.20
49342;BME280;35210;41.606;-87.602;2023-02-22T08:15:50;98580.94;;;3.99;57.54
49342;BME280;35210;41.606;-87.602;2023-02-22T08:18:24;98573.94;;;3.99;57.23
49342;BME280;35210;41.606;-87.602;2023-02-22T08:20:54;98567.78;;;4.00;57.02
49342;BME280;35210;41.606;-87.602;2023-02-22T08:23:25;98571.13;;;4.02;57.00
49342;BME280;35210;41.606;-87.602;2023-02-22T08:25:53;98553.53;;;3.91;56.40
49342;BME280;35210;41.606;-87.602;2023-02-22T08:28:23;98563.78;;;3.94;56.67
49342;BME280;35210;41.606;-87.602;2023-02-22T08:30:52;98569.47;;;4.01;57.54
49342;BME280;35210;41.606;-87.602;2023-02-22T08:33:22;98565.81;;;4.04;56.90
49342;BME280;35210;41.606;-87.602;2023-02-22T08:35:50;98530.72;;;4.08;56.89
49342;BME280;35210;41.606;-87.602;2023-02-22T08:38:24;98515.78;;;4.10;57.60
49342;BME280;35210;41.606;-87.602;2023-02-22T08:40:52;98504.19;;;4.14;57.28
49342;BME280;35210;41.606;-87.602;2023-02-22T08:43:21;98481.41;;;4.16;56.64
49342;BME280;35210;41.606;-87.602;2023-02-22T08:45:50;98472.66;;;4.17;57.71
49342;BME280;35210;41.606;-87.602;2023-02-22T08:48:19;98459.59;;;4.17;56.57
49342;BME280;35210;41.606;-87.602;2023-02-22T08:50:47;98464.41;;;4.23;56.70
49342;BME280;35210;41.606;-87.602;2023-02-22T08:53:17;98479.88;;;4.26;56.65
49342;BME280;35210;41.606;-87.602;2023-02-22T08:55:47;98467.34;;;4.31;56.06
49342;BME280;35210;41.606;-87.602;2023-02-22T08:58:16;98455.53;;;4.38;55.85
49342;BME280;35210;41.606;-87.602;2023-02-22T09:00:44;98431.81;;;4.41;56.03
49342;BME280;35210;41.606;-87.602;2023-02-22T09:03:13;98422.09;;;4.43;55.89
49342;BME280;35210;41.606;-87.602;2023-02-22T09:05:42;98422.41;;;4.39;55.72
49342;BME280;35210;41.606;-87.602;2023-02-22T09:08:11;98410.06;;;4.41;55.65
49342;BME280;35210;41.606;-87.602;2023-02-22T09:10:40;98404.22;;;4.37;55.93
49342;BME280;35210;41.606;-87.602;2023-02-22T09:13:12;98398.34;;;4.34;55.36
49342;BME280;35210;41.606;-87.602;2023-02-22T09:15:41;98413.41;;;4.30;55.90
49342;BME280;35210;41.606;-87.602;2023-02-22T09:18:10;98436.81;;;4.32;56.15
49342;BME280;35210;41.606;-87.602;2023-02-22T09:20:39;98430.66;;;4.33;55.84
49342;BME280;35210;41.606;-87.602;2023-02-22T09:23:08;98453.53;;;4.29;56.74
49342;BME280;35210;41.606;-87.602;2023-02-22T09:25:36;98461.88;;;4.21;56.23
49342;BME280;35210;41.606;-87.602;2023-02-22T09:28:06;98483.63;;;4.22;57.28
49342;BME280;35210;41.606;-87.602;2023-02-22T09:30:36;98494.72;;;4.25;56.83
49342;BME280;35210;41.606;-87.602;2023-02-22T09:33:07;98505.28;;;4.24;56.42
49342;BME280;35210;41.606;-87.602;2023-02-22T09:35:36;98517.19;;;4.28;56.57
49342;BME280;35210;41.606;-87.602;2023-02-22T09:38:08;98531.75;;;4.32;56.39
49342;BME280;35210;41.606;-87.602;2023-02-22T09:40:39;98575.97;;;4.35;57.02
49342;BME280;35210;41.606;-87.602;2023-02-22T09:43:20;98541.69;;;4.40;56.56
49342;BME280;35210;41.606;-87.602;2023-02-22T09:46:13;98516.91;;;4.45;56.98
49342;BME280;35210;41.606;-87.602;2023-02-22T09:48:54;98483.66;;;4.47;57.32
49342;BME280;35210;41.606;-87.602;2023-02-22T09:51:28;98460.25;;;4.33;57.97
49342;BME280;35210;41.606;-87.602;2023-02-22T09:54:02;98456.69;;;4.34;58.99
49342;BME280;35210;41.606;-87.602;2023-02-22T09:56:32;98479.06;;;4.38;60.02
49342;BME280;35210;41.606;-87.602;2023-02-22T09:59:02;98481.78;;;4.37;60.63
49342;BME280;35210;41.606;-87.602;2023-02-22T10:01:38;98491.59;;;4.33;60.67
49342;BME280;35210;41.606;-87.602;2023-02-22T10:04:14;98508.22;;;4.32;61.08
49342;BME280;35210;41.606;-87.602;2023-02-22T10:06:57;98503.81;;;4.33;60.91
49342;BME280;35210;41.606;-87.602;2023-02-22T10:09:33;98479.06;;;4.38;62.36
49342;BME280;35210;41.606;-87.602;2023-02-22T10:12:08;98483.25;;;4.41;63.69
49342;BME280;35210;41.606;-87.602;2023-02-22T10:15:03;98470.69;;;4.33;63.88
49342;BME280;35210;41.606;-87.602;2023-02-22T10:17:40;98481.25;;;4.32;63.40
49342;BME280;35210;41.606;-87.602;2023-02-22T10:20:20;98482.28;;;4.29;63.76
49342;BME280;35210;41.606;-87.602;2023-02-22T10:23:03;98511.66;;;4.33;64.91
49342;BME280;35210;41.606;-87.602;2023-02-22T10:25:38;98504.66;;;4.33;64.94
49342;BME280;35210;41.606;-87.602;2023-02-22T10:28:17;98502.28;;;4.43;65.03
49342;BME280;35210;41.606;-87.602;2023-02-22T10:30:50;98486.88;;;4.51;66.01
49342;BME280;35210;41.606;-87.602;2023-02-22T10:33:25;98478.94;;;4.52;66.43
49342;BME280;35210;41.606;-87.602;2023-02-22T10:35:55;98476.31;;;4.52;68.23
49342;BME280;35210;41.606;-87.602;2023-02-22T10:38:25;98479.50;;;4.45;69.01
49342;BME280;35210;41.606;-87.602;2023-02-22T10:40:56;98472.69;;;4.42;70.00
49342;BME280;35210;41.606;-87.602;2023-02-22T10:43:29;98502.78;;;4.35;70.56
49342;BME280;35210;41.606;-87.602;2023-02-22T10:46:01;98492.44;;;4.34;71.82
49342;BME280;35210;41.606;-87.602;2023-02-22T10:48:35;98457.75;;;4.44;72.33
49342;BME280;35210;41.606;-87.602;2023-02-22T10:51:07;98434.91;;;4.46;72.32
49342;BME280;35210;41.606;-87.602;2023-02-22T10:53:37;98426.13;;;4.47;73.61
49342;BME280;35210;41.606;-87.602;2023-02-22T10:56:09;98439.75;;;4.40;74.13
49342;BME280;35210;41.606;-87.602;2023-02-22T10:58:41;98450.91;;;4.16;72.36
49342;BME280;35210;41.606;-87.602;2023-02-22T11:01:20;98457.56;;;4.08;73.50
49342;BME280;35210;41.606;-87.602;2023-02-22T11:04:07;98475.75;;;4.09;73.06
49342;BME280;35210;41.606;-87.602;2023-02-22T11:06:39;98463.44;;;4.11;73.69
49342;BME280;35210;41.606;-87.602;2023-02-22T11:09:12;98429.16;;;4.16;72.67
49342;BME280;35210;41.606;-87.602;2023-02-22T11:11:44;98440.03;;;4.10;73.94
49342;BME280;35210;41.606;-87.602;2023-02-22T11:14:25;98441.06;;;4.07;71.87
49342;BME280;35210;41.606;-87.602;2023-02-22T11:16:55;98455.56;;;3.99;72.54
49342;BME280;35210;41.606;-87.602;2023-02-22T11:19:27;98453.16;;;3.95;72.89
49342;BME280;35210;41.606;-87.602;2023-02-22T11:21:59;98460.13;;;3.82;73.16
49342;BME280;35210;41.606;-87.602;2023-02-22T11:24:43;98465.44;;;3.81;73.10
49342;BME280;35210;41.606;-87.602;2023-02-22T11:27:23;98491.34;;;3.71;74.62
49342;BME280;35210;41.606;-87.602;2023-02-22T11:29:54;98487.56;;;3.75;75.71
49342;BME280;35210;41.606;-87.602;2023-02-22T11:32:26;98456.38;;;3.86;75.98
49342;BME280;35210;41.606;-87.602;2023-02-22T11:35:17;98442.28;;;3.89;74.67
49342;BME280;35210;41.606;-87.602;2023-02-22T11:37:46;98450.22;;;3.87;73.93
49342;BME280;35210;41.606;-87.602;2023-02-22T11:40:16;98439.03;;;3.85;75.20
49342;BME280;35210;41.606;-87.602;2023-02-22T11:42:48;98439.56;;;3.90;76.02
49342;BME280;35210;41.606;-87.602;2023-02-22T11:45:18;98441.00;;;3.82;75.24
49342;BME280;35210;41.606;-87.602;2023-02-22T11:47:55;98432.31;;;3.81;76.16
49342;BME280;35210;41.606;-87.602;2023-02-22T11:50:30;98446.31;;;3.80;76.18
49342;BME280;35210;41.606;-87.602;2023-02-22T11:53:20;98459.28;;;3.82;76.98
49342;BME280;35210;41.606;-87.602;2023-02-22T11:56:03;98462.19;;;3.77;76.41
49342;BME280;35210;41.606;-87.602;2023-02-22T11:58:42;98420.59;;;3.74;77.47
49342;BME280;35210;41.606;-87.602;2023-02-22T12:01:21;98415.94;;;3.79;78.15
49342;BME280;35210;41.606;-87.602;2023-02-22T12:07:09;98437.94;;;3.75;78.61
49342;BME280;35210;41.606;-87.602;2023-02-22T12:09:45;98437.53;;;3.69;79.15
49342;BME280;35210;41.606;-87.602;2023-02-22T12:12:22;98463.56;;;3.70;80.30
49342;BME280;35210;41.606;-87.602;2023-02-22T12:14:59;98472.34;;;3.55;79.92
49342;BME280;35210;41.606;-87.602;2023-02-22T12:17:38;98498.47;;;3.55;80.75
49342;BME280;35210;41.606;-87.602;2023-02-22T12:20:16;98505.16;;;3.59;81.36
49342;BME280;35210;41.606;-87.602;2023-02-22T12:22:59;98517.47;;;3.57;81.37
49342;BME280;35210;41.606;-87.602;2023-02-22T12:25:32;98510.00;;;3.65;81.59
49342;BME280;35210;41.606;-87.602;2023-02-22T12:28:13;98523.25;;;3.62;81.57
49342;BME280;35210;41.606;-87.602;2023-02-22T12:30:46;98531.91;;;3.62;82.29
49342;BME280;35210;41.606;-87.602;2023-02-22T12:33:24;98515.78;;;3.56;82.14
49342;BME280;35210;41.606;-87.602;2023-02-22T12:35:55;98545.91;;;3.61;82.80
49342;BME280;35210;41.606;-87.602;2023-02-22T12:38:31;98547.28;;;3.67;83.40
49342;BME280;35210;41.606;-87.602;2023-02-22T12:41:08;98547.19;;;3.69;82.87
49342;BME280;35210;41.606;-87.602;2023-02-22T12:43:43;98537.78;;;3.66;83.50
49342;BME280;35210;41.606;-87.602;2023-02-22T12:46:16;98520.34;;;3.67;83.22
49342;BME280;35210;41.606;-87.602;2023-02-22T12:48:51;98516.94;;;3.52;83.71
49342;BME280;35210;41.606;-87.602;2023-02-22T12:51:27;98500.72;;;3.47;84.80
49342;BME280;35210;41.606;-87.602;2023-02-22T12:54:06;98515.63;;;3.45;85.09
49342;BME280;35210;41.606;-87.602;2023-02-22T12:56:42;98514.50;;;3.49;85.48
49342;BME280;35210;41.606;-87.602;2023-02-22T12:59:17;98515.44;;;3.48;85.92
49342;BME280;35210;41.606;-87.602;2023-02-22T13:01:51;98524.50;;;3.42;86.11
49342;BME280;35210;41.606;-87.602;2023-02-22T13:04:20;98503.31;;;3.47;86.42
49342;BME280;35210;41.606;-87.602;2023-02-22T13:07:00;98499.03;;;3.46;87.12
49342;BME280;35210;41.606;-87.602;2023-02-22T13:09:44;98491.59;;;3.40;87.08
49342;BME280;35210;41.606;-87.602;2023-02-22T13:12:20;98505.56;;;3.39;87.60
49342;BME280;35210;41.606;-87.602;2023-02-22T13:14:59;98520.09;;;3.43;88.07
49342;BME280;35210;41.606;-87.602;2023-02-22T13:17:39;98525.31;;;3.43;88.62
49342;BME280;35210;41.606;-87.602;2023-02-22T13:20:15;98547.59;;;3.48;88.81
49342;BME280;35210;41.606;-87.602;2023-02-22T13:22:48;98551.97;;;3.48;88.97
49342;BME280;35210;41.606;-87.602;2023-02-22T13:25:27;98552.53;;;3.53;88.72